Terminal Aerodrome Forecast
Issued by NWS

Home | Current Version | Previous Version | Text Only | Print | Product List | Glossary On
Versions: 1 2 3 4 5 6 7 8 9 10 11 12 13 14 15 16 17 18 19 20 21 22 23 24 25 26 27 28 29 30 31 32 33 34 35 36 37 38 39 40 41 42 43 44 45 46
000
FTAK31 PAFA 281120
TAFAOM
TAF
PAOM 281120Z 2812/2912 08015KT 2SM -SN BR OVC005
     FM281400 09015KT 6SM -SHSN BR BKN006 OVC012
     FM281800 12012KT P6SM VCSH SCT006 BKN012 OVC020=

USA.gov is the U.S. government's official web portal to all federal, state and local government web resources and services.